Private Wetterstation Wechselburg
Wetterdaten: Woche 20.05.13 - 26.05.13 (KW21)
Datum Zeit Temp. +2m Bodentemp. Temp.+5cm Temp. Wind Windchill X Diff Temp. Feuchte +2m Feuchte +5cm Sonnenschein Luftdruck Regen Wind Richtung Sonnenschein UV Taupunkt Windchill Windben
20.05.2013 00:00 11,6 C 22,5 C 12,8 C 12,2 C 12,2 C 0,6 C 87 % 89 % 0 % 1006,0 hPa 0,0 l/m 1,6 km/h (1 Bft) S 0,00 h 0,0 UV-I 9,5 C 12,2 C 3,7 km/h (1 Bft)
20.05.2013 01:00 10,8 C 22,3 C 12,0 C 11,5 C 11,5 C 0,6 C 87 % 90 % 0 % 1006,9 hPa 0,0 l/m 2,0 km/h (1 Bft) SO 0,00 h 0,0 UV-I 8,8 C 11,5 C 3,5 km/h (1 Bft)
20.05.2013 02:00 10,7 C 22,0 C 11,5 C 11,5 C 11,5 C 0,9 C 86 % 89 % 0 % 1007,3 hPa 0,0 l/m 2,1 km/h (1 Bft) SO 0,00 h 0,0 UV-I 8,5 C 11,5 C 4,3 km/h (1 Bft)
20.05.2013 03:00 10,7 C 21,8 C 11,4 C 11,4 C 11,4 C 0,7 C 86 % 89 % 0 % 1007,5 hPa 0,0 l/m 1,9 km/h (1 Bft) W-SW 0,00 h 0,0 UV-I 8,4 C 11,4 C 3,0 km/h (1 Bft)
20.05.2013 04:00 10,5 C 21,5 C 11,2 C 11,1 C 11,1 C 0,6 C 85 % 89 % 0 % 1007,7 hPa 0,0 l/m 2,2 km/h (1 Bft) SO 0,00 h 0,0 UV-I 8,0 C 11,1 C 3,0 km/h (1 Bft)
20.05.2013 05:00 10,5 C 21,2 C 11,0 C 10,7 C 10,7 C 0,2 C 82 % 88 % 2 % 1008,0 hPa 0,0 l/m 2,2 km/h (1 Bft) W-SW 0,00 h 0,0 UV-I 7,6 C 10,7 C 3,3 km/h (1 Bft)
20.05.2013 06:00 10,1 C 21,1 C 10,9 C 10,3 C 10,3 C 0,2 C 83 % 87 % 6 % 1008,5 hPa 0,0 l/m 2,0 km/h (1 Bft) W-SW 0,00 h 0,0 UV-I 7,3 C 10,3 C 2,7 km/h (1 Bft)
20.05.2013 07:00 11,8 C 20,9 C 12,0 C 17,0 C 17,0 C 5,2 C 78 % 82 % 100 % 1009,2 hPa 0,0 l/m 4,7 km/h (1 Bft) S 1,23 h 0,0 UV-I 8,0 C 17,0 C 7,5 km/h (2 Bft)
20.05.2013 08:00 13,0 C 20,7 C 12,3 C 18,1 C 18,1 C 5,1 C 73 % 78 % 100 % 1009,8 hPa 0,0 l/m 6,1 km/h (2 Bft) S 1,00 h 0,2 UV-I 8,3 C 18,1 C 8,9 km/h (2 Bft)
20.05.2013 09:00 13,4 C 20,7 C 13,4 C 15,8 C 15,8 C 2,4 C 73 % 76 % 64 % 1010,4 hPa 0,0 l/m 5,2 km/h (1 Bft) S 0,08 h 0,2 UV-I 8,6 C 15,8 C 8,5 km/h (2 Bft)
20.05.2013 10:00 13,5 C 20,7 C 13,8 C 15,5 C 15,5 C 2,0 C 72 % 75 % 52 % 1011,2 hPa 0,0 l/m 4,1 km/h (1 Bft) SW 0,00 h 0,2 UV-I 8,6 C 15,5 C 6,5 km/h (2 Bft)
20.05.2013 11:00 14,4 C 20,7 C 14,5 C 17,2 C 17,2 C 2,8 C 69 % 72 % 72 % 1011,7 hPa 0,0 l/m 4,5 km/h (1 Bft) S 0,25 h 0,6 UV-I 8,9 C 17,2 C 7,4 km/h (2 Bft)
20.05.2013 12:00 15,4 C 20,7 C 15,3 C 18,8 C 18,8 C 3,5 C 66 % 70 % 88 % 1011,4 hPa 0,0 l/m 5,9 km/h (2 Bft) S-SW 0,43 h 1,3 UV-I 9,1 C 18,8 C 9,2 km/h (2 Bft)
20.05.2013 13:00 16,9 C 20,4 C 17,4 C 21,2 C 21,2 C 4,2 C 63 % 65 % 100 % 1011,7 hPa 0,0 l/m 5,3 km/h (1 Bft) S 1,23 h 1,9 UV-I 9,9 C 21,2 C 7,2 km/h (2 Bft)
20.05.2013 14:00 17,2 C 20,4 C 17,3 C 19,8 C 19,8 C 2,6 C 60 % 65 % 68 % 1011,6 hPa 0,0 l/m 5,9 km/h (2 Bft) SW 0,25 h 0,8 UV-I 9,3 C 19,8 C 7,6 km/h (2 Bft)
20.05.2013 15:00 17,7 C 20,5 C 17,3 C 20,4 C 20,4 C 2,7 C 58 % 64 % 72 % 1011,2 hPa 0,0 l/m 6,3 km/h (2 Bft) SW 0,17 h 0,8 UV-I 9,2 C 20,4 C 7,7 km/h (2 Bft)
20.05.2013 16:00 18,5 C 20,7 C 17,9 C 21,6 C 21,6 C 3,1 C 56 % 62 % 81 % 1011,5 hPa 0,0 l/m 6,5 km/h (2 Bft) SW 0,25 h 0,5 UV-I 9,4 C 21,6 C 7,6 km/h (2 Bft)
20.05.2013 17:00 18,6 C 20,8 C 17,8 C 21,8 C 21,8 C 3,2 C 54 % 60 % 82 % 1011,1 hPa 0,0 l/m 5,4 km/h (1 Bft) SW 0,67 h 0,2 UV-I 8,9 C 21,8 C 7,7 km/h (2 Bft)
20.05.2013 18:00 18,3 C 20,9 C 18,0 C 22,4 C 22,4 C 4,0 C 53 % 60 % 99 % 1010,9 hPa 0,0 l/m 6,6 km/h (2 Bft) SW 1,05 h 0,0 UV-I 8,6 C 22,4 C 9,2 km/h (2 Bft)
20.05.2013 19:00 17,8 C 20,9 C 17,3 C 19,9 C 19,9 C 2,1 C 54 % 60 % 55 % 1011,0 hPa 0,0 l/m 5,7 km/h (1 Bft) W-SW 0,62 h 0,0 UV-I 8,4 C 19,9 C 7,2 km/h (2 Bft)
20.05.2013 20:00 15,8 C 21,0 C 15,2 C 15,6 C 15,0 C 0,0 C 60 % 68 % 0 % 1011,7 hPa 0,0 l/m 2,5 km/h (1 Bft) SW 0,00 h 0,0 UV-I 8,1 C 15,0 C 2,8 km/h (1 Bft)
20.05.2013 21:00 13,6 C 21,0 C 13,1 C 13,1 C 12,0 C 0,0 C 68 % 75 % 0 % 1012,0 hPa 0,0 l/m 0,1 km/h (0 Bft) N 0,00 h 0,0 UV-I 7,9 C 12,0 C 0,2 km/h (0 Bft)
20.05.2013 22:00 11,9 C 20,9 C 11,8 C 11,4 C 10,6 C 0,0 C 73 % 79 % 0 % 1013,0 hPa 0,0 l/m 0,1 km/h (0 Bft) N 0,00 h 0,0 UV-I 7,2 C 10,6 C 0,1 km/h (0 Bft)
20.05.2013 23:00 10,9 C 20,9 C 11,0 C 10,5 C 9,7 C 0,0 C 77 % 81 % 0 % 1012,9 hPa 0,0 l/m 0,5 km/h (0 Bft) O-SO 0,00 h 0,0 UV-I 6,9 C 9,7 C 0,9 km/h (0 Bft)
21.05.2013 00:00 10,2 C 20,9 C 10,3 C 9,8 C 9,0 C 0,0 C 78 % 82 % 0 % 1013,3 hPa 0,0 l/m 0,2 km/h (0 Bft) N 0,00 h 0,0 UV-I 6,6 C 9,0 C 0,6 km/h (0 Bft)
21.05.2013 01:00 9,5 C 20,7 C 10,1 C 9,2 C 8,6 C 0,0 C 80 % 82 % 0 % 1013,3 hPa 0,0 l/m 0,1 km/h (0 Bft) N 0,00 h 0,0 UV-I 6,2 C 8,6 C 0,7 km/h (0 Bft)
21.05.2013 02:00 9,3 C 20,7 C 9,7 C 8,9 C 8,2 C 0,0 C 80 % 82 % 0 % 1013,2 hPa 0,0 l/m 0,4 km/h (0 Bft) N 0,00 h 0,0 UV-I 6,0 C 8,2 C 1,1 km/h (1 Bft)
21.05.2013 03:00 8,0 C 20,6 C 8,7 C 7,7 C 7,2 C 0,0 C 82 % 84 % 0 % 1013,2 hPa 0,0 l/m 0,3 km/h (0 Bft) N 0,00 h 0,0 UV-I 5,2 C 7,2 C 0,3 km/h (0 Bft)
21.05.2013 04:00 7,3 C 20,5 C 8,4 C 7,2 C 6,9 C 0,0 C 83 % 84 % 0 % 1013,1 hPa 0,0 l/m 0,2 km/h (0 Bft) N 0,00 h 0,0 UV-I 4,7 C 6,9 C 0,0 km/h (0 Bft)
21.05.2013 05:00 6,5 C 20,4 C 7,9 C 6,5 C 6,3 C 0,1 C 85 % 85 % 2 % 1013,2 hPa 0,0 l/m 0,2 km/h (0 Bft) S 0,00 h 0,0 UV-I 4,1 C 6,3 C 0,6 km/h (0 Bft)
21.05.2013 06:00 6,8 C 20,3 C 8,5 C 7,4 C 7,4 C 0,6 C 85 % 85 % 16 % 1013,3 hPa 0,0 l/m 0,7 km/h (0 Bft) S 0,00 h 0,0 UV-I 4,4 C 7,4 C 2,0 km/h (1 Bft)
21.05.2013 07:00 10,4 C 20,1 C 11,0 C 18,8 C 18,8 C 8,4 C 80 % 81 % 100 % 1013,1 hPa 0,0 l/m 1,2 km/h (1 Bft) SO 1,23 h 0,0 UV-I 7,1 C 18,8 C 3,1 km/h (1 Bft)
21.05.2013 08:00 13,1 C 20,0 C 11,7 C 20,1 C 20,1 C 7,0 C 71 % 78 % 100 % 1013,1 hPa 0,0 l/m 4,1 km/h (1 Bft) W-SW 1,00 h 0,2 UV-I 7,9 C 20,1 C 7,5 km/h (2 Bft)
21.05.2013 09:00 13,9 C 20,0 C 12,7 C 18,6 C 18,6 C 4,7 C 68 % 76 % 87 % 1012,9 hPa 0,0 l/m 5,3 km/h (1 Bft) SW 0,58 h 0,4 UV-I 8,0 C 18,6 C 7,5 km/h (2 Bft)
21.05.2013 10:00 13,9 C 19,9 C 13,8 C 16,4 C 16,4 C 2,5 C 67 % 72 % 67 % 1012,9 hPa 0,0 l/m 4,2 km/h (1 Bft) S 0,17 h 0,4 UV-I 8,0 C 16,4 C 5,3 km/h (1 Bft)
21.05.2013 11:00 14,4 C 19,9 C 14,4 C 17,0 C 17,0 C 2,5 C 66 % 71 % 67 % 1013,0 hPa 0,0 l/m 2,9 km/h (1 Bft) SW 0,08 h 0,5 UV-I 8,3 C 17,0 C 3,9 km/h (1 Bft)
21.05.2013 12:00 14,8 C 20,0 C 14,6 C 17,0 C 17,0 C 2,2 C 65 % 72 % 59 % 1012,8 hPa 0,0 l/m 3,7 km/h (1 Bft) SW 0,17 h 0,2 UV-I 8,2 C 17,0 C 4,1 km/h (1 Bft)
21.05.2013 13:00 15,5 C 20,0 C 15,5 C 18,9 C 18,9 C 3,4 C 65 % 70 % 87 % 1012,6 hPa 0,0 l/m 2,6 km/h (1 Bft) S-SW 0,58 h 0,8 UV-I 8,9 C 18,9 C 3,1 km/h (1 Bft)
21.05.2013 14:00 16,6 C 20,0 C 16,5 C 20,3 C 20,3 C 3,7 C 61 % 69 % 88 % 1012,0 hPa 0,0 l/m 3,1 km/h (1 Bft) W-SW 0,50 h 0,7 UV-I 9,2 C 20,3 C 4,0 km/h (1 Bft)
21.05.2013 15:00 18,0 C 20,1 C 17,3 C 21,3 C 21,3 C 3,3 C 58 % 67 % 85 % 1011,3 hPa 0,0 l/m 5,0 km/h (1 Bft) W-SW 0,57 h 0,9 UV-I 9,5 C 21,3 C 5,9 km/h (2 Bft)
21.05.2013 16:00 18,7 C 20,3 C 17,7 C 21,5 C 21,5 C 2,8 C 53 % 64 % 74 % 1010,8 hPa 0,0 l/m 5,6 km/h (1 Bft) SW 0,08 h 0,5 UV-I 9,0 C 21,5 C 7,3 km/h (2 Bft)
21.05.2013 17:00 18,2 C 20,4 C 17,6 C 21,6 C 21,6 C 3,4 C 55 % 63 % 82 % 1010,2 hPa 0,0 l/m 4,3 km/h (1 Bft) SW 0,58 h 0,1 UV-I 9,1 C 21,6 C 5,5 km/h (1 Bft)
21.05.2013 18:00 17,3 C 20,4 C 16,7 C 21,2 C 21,2 C 3,9 C 56 % 65 % 97 % 1010,1 hPa 0,0 l/m 0,9 km/h (0 Bft) W-SW 0,77 h 0,0 UV-I 8,5 C 21,2 C 0,8 km/h (0 Bft)
21.05.2013 19:00 16,0 C 20,6 C 15,5 C 19,4 C 18,9 C 3,4 C 63 % 71 % 89 % 1009,8 hPa 0,0 l/m 0,0 km/h (0 Bft) N 1,23 h 0,0 UV-I 8,9 C 18,9 C 0,0 km/h (0 Bft)
21.05.2013 20:00 15,0 C 20,7 C 14,6 C 17,8 C 17,6 C 2,7 C 69 % 76 % 61 % 1009,9 hPa 0,0 l/m 0,0 km/h (0 Bft) N 0,83 h 0,0 UV-I 9,4 C 17,6 C 0,0 km/h (0 Bft)
21.05.2013 21:00 13,9 C 20,7 C 13,6 C 15,7 C 16,3 C 1,7 C 75 % 80 % 0 % 1010,0 hPa 0,0 l/m 0,0 km/h (0 Bft) N 0,00 h 0,0 UV-I 9,6 C 16,3 C 0,0 km/h (0 Bft)
21.05.2013 22:00 12,8 C 20,9 C 12,9 C 14,0 C 15,4 C 1,3 C 81 % 83 % 0 % 1010,0 hPa 0,0 l/m 0,0 km/h (0 Bft) N 0,00 h 0,0 UV-I 9,5 C 15,4 C 0,0 km/h (0 Bft)
21.05.2013 23:00 11,5 C 20,9 C 12,1 C 11,3 C 12,6 C 0,2 C 83 % 84 % 0 % 1009,6 hPa 0,0 l/m 0,0 km/h (0 Bft) N 0,00 h 0,0 UV-I 8,6 C 12,6 C 0,0 km/h (0 Bft)
22.05.2013 00:00 10,5 C 21,0 C 11,5 C 9,7 C 10,3 C 0,0 C 85 % 85 % 0 % 1009,2 hPa 0,0 l/m 0,0 km/h (0 Bft) N 0,00 h 0,0 UV-I 8,0 C 10,3 C 0,0 km/h (0 Bft)
22.05.2013 01:00 9,0 C 20,9 C 10,1 C 8,9 C 9,1 C 0,2 C 85 % 86 % 0 % 1008,6 hPa 0,0 l/m 0,0 km/h (0 Bft) N 0,00 h 0,0 UV-I 6,6 C 9,1 C 0,0 km/h (0 Bft)
22.05.2013 02:00 7,7 C 20,8 C 9,3 C 8,0 C 8,0 C 0,3 C 86 % 86 % 0 % 1008,1 hPa 0,0 l/m 0,0 km/h (0 Bft) N 0,00 h 0,0 UV-I 5,5 C 8,0 C 0,0 km/h (0 Bft)
22.05.2013 03:00 7,5 C 20,6 C 9,4 C 7,1 C 7,6 C 0,1 C 88 % 86 % 0 % 1007,8 hPa 0,0 l/m 0,0 km/h (0 Bft) N 0,00 h 0,0 UV-I 5,6 C 7,6 C 0,0 km/h (0 Bft)
22.05.2013 04:00 8,5 C 20,4 C 10,2 C 7,0 C 7,0 C 0,0 C 87 % 86 % 0 % 1007,1 hPa 0,0 l/m 0,0 km/h (0 Bft) N 0,00 h 0,0 UV-I 6,4 C 7,0 C 0,0 km/h (0 Bft)
22.05.2013 05:00 9,5 C 20,3 C 10,8 C 6,6 C 6,3 C 0,0 C 85 % 85 % 0 % 1006,8 hPa 0,0 l/m 0,0 km/h (0 Bft) N 0,00 h 0,0 UV-I 7,1 C 6,3 C 0,0 km/h (0 Bft)
22.05.2013 06:00 10,6 C 20,2 C 11,4 C 7,1 C 6,3 C 0,0 C 83 % 83 % 0 % 1006,5 hPa 0,0 l/m 0,0 km/h (0 Bft) N 0,00 h 0,0 UV-I 7,8 C 6,3 C 0,0 km/h (0 Bft)
22.05.2013 07:00 11,7 C 20,2 C 12,1 C 8,3 C 7,1 C 0,0 C 80 % 81 % 0 % 1005,9 hPa 0,0 l/m 0,0 km/h (0 Bft) N 0,00 h 0,0 UV-I 8,4 C 7,1 C 0,0 km/h (0 Bft)
22.05.2013 08:00 12,2 C 20,1 C 12,3 C 9,3 C 8,0 C 0,0 C 79 % 81 % 0 % 1005,8 hPa 0,0 l/m 0,0 km/h (0 Bft) N 0,00 h 0,0 UV-I 8,6 C 8,0 C 0,0 km/h (0 Bft)
22.05.2013 09:00 10,4 C 20,5 C 11,2 C 9,0 C 8,8 C 0,0 C 84 % 85 % 0 % 1006,1 hPa 0,7 l/m 0,0 km/h (0 Bft) N 0,00 h 0,0 UV-I 7,7 C 8,8 C 0,0 km/h (0 Bft)
22.05.2013 10:00 10,5 C 20,6 C 11,8 C 10,3 C 10,3 C 0,1 C 88 % 88 % 2 % 1006,0 hPa 0,7 l/m 0,0 km/h (0 Bft) N 0,00 h 0,0 UV-I 8,5 C 10,3 C 0,0 km/h (0 Bft)
22.05.2013 11:00 9,7 C 20,4 C 10,8 C 10,0 C 10,4 C 0,4 C 86 % 88 % 10 % 1006,3 hPa 0,7 l/m 0,0 km/h (0 Bft) N 0,00 h 0,2 UV-I 7,4 C 10,4 C 0,0 km/h (0 Bft)
22.05.2013 12:00 8,9 C 20,4 C 10,2 C 9,0 C 9,1 C 0,2 C 87 % 88 % 5 % 1006,6 hPa 1,4 l/m 0,0 km/h (0 Bft) N 0,00 h 0,2 UV-I 6,8 C 9,1 C 0,0 km/h (0 Bft)
22.05.2013 13:00 8,1 C 20,3 C 9,6 C 8,5 C 8,9 C 0,4 C 86 % 89 % 11 % 1007,3 hPa 0,7 l/m 0,0 km/h (0 Bft) N 0,00 h 0,3 UV-I 6,0 C 8,9 C 0,0 km/h (0 Bft)
22.05.2013 14:00 8,0 C 20,0 C 9,4 C 8,0 C 8,0 C 0,0 C 86 % 89 % 0 % 1007,7 hPa 0,7 l/m 0,0 km/h (0 Bft) N 0,00 h 0,2 UV-I 5,8 C 8,0 C 0,0 km/h (0 Bft)
22.05.2013 15:00 7,8 C 19,9 C 9,3 C 7,7 C 7,4 C 0,1 C 87 % 89 % 3 % 1008,5 hPa 0,7 l/m 0,0 km/h (0 Bft) N 0,00 h 0,2 UV-I 5,7 C 7,4 C 0,0 km/h (0 Bft)
22.05.2013 16:00 7,4 C 19,8 C 8,8 C 7,0 C 7,1 C 0,0 C 86 % 88 % 0 % 1008,5 hPa 0,7 l/m 0,0 km/h (0 Bft) N 0,00 h 0,1 UV-I 5,3 C 7,1 C 0,0 km/h (0 Bft)
22.05.2013 17:00 6,9 C 19,5 C 8,3 C 7,4 C 7,4 C 0,5 C 86 % 88 % 13 % 1009,2 hPa 0,0 l/m 5,0 km/h (1 Bft) SW 0,00 h 0,0 UV-I 4,7 C 6,7 C 5,7 km/h (1 Bft)
22.05.2013 18:00 7,0 C 19,4 C 8,5 C 7,5 C 7,5 C 0,5 C 87 % 89 % 13 % 1009,6 hPa 0,0 l/m 5,7 km/h (1 Bft) W-SW 0,00 h 0,0 UV-I 5,0 C 6,7 C 8,6 km/h (2 Bft)
22.05.2013 19:00 7,8 C 19,3 C 8,7 C 8,0 C 7,9 C 0,2 C 84 % 89 % 5 % 1010,0 hPa 0,0 l/m 7,0 km/h (2 Bft) SW 0,00 h 0,0 UV-I 5,3 C 6,8 C 9,0 km/h (2 Bft)
22.05.2013 20:00 7,8 C 19,1 C 8,5 C 8,0 C 8,0 C 0,2 C 83 % 89 % 3 % 1010,5 hPa 0,0 l/m 5,5 km/h (1 Bft) W-SW 0,00 h 0,0 UV-I 5,1 C 7,3 C 6,7 km/h (2 Bft)
22.05.2013 21:00 7,7 C 19,0 C 8,4 C 7,6 C 7,3 C 0,0 C 83 % 89 % 0 % 1011,1 hPa 0,0 l/m 6,7 km/h (2 Bft) SW 0,00 h 0,0 UV-I 5,0 C 6,2 C 9,1 km/h (2 Bft)
22.05.2013 22:00 7,7 C 18,9 C 8,3 C 7,5 C 7,2 C 0,0 C 81 % 88 % 0 % 1011,7 hPa 0,0 l/m 6,1 km/h (2 Bft) S 0,00 h 0,0 UV-I 4,7 C 6,2 C 7,2 km/h (2 Bft)
22.05.2013 23:00 7,4 C 18,8 C 8,1 C 7,5 C 7,4 C 0,1 C 80 % 88 % 0 % 1011,7 hPa 0,0 l/m 3,7 km/h (1 Bft) SW 0,00 h 0,0 UV-I 4,2 C 7,3 C 5,3 km/h (1 Bft)
23.05.2013 00:00 7,2 C 18,7 C 7,9 C 7,3 C 7,3 C 0,2 C 81 % 88 % 0 % 1012,2 hPa 0,0 l/m 3,0 km/h (1 Bft) S-SO 0,00 h 0,0 UV-I 4,0 C 7,3 C 4,4 km/h (1 Bft)
23.05.2013 01:00 7,2 C 18,6 C 7,8 C 7,1 C 6,9 C 0,0 C 79 % 87 % 0 % 1012,4 hPa 0,0 l/m 4,5 km/h (1 Bft) W-SW 0,00 h 0,0 UV-I 3,9 C 6,6 C 7,0 km/h (2 Bft)
23.05.2013 02:00 6,8 C 18,5 C 7,3 C 6,6 C 6,2 C 0,0 C 78 % 86 % 0 % 1012,5 hPa 0,0 l/m 2,8 km/h (1 Bft) SW 0,00 h 0,0 UV-I 3,2 C 6,1 C 3,1 km/h (1 Bft)
23.05.2013 03:00 5,5 C 18,6 C 6,3 C 5,1 C 4,3 C 0,0 C 80 % 86 % 0 % 1012,4 hPa 0,0 l/m 0,5 km/h (0 Bft) NW 0,00 h 0,0 UV-I 2,4 C 4,3 C 0,5 km/h (0 Bft)
23.05.2013 04:00 3,8 C 18,6 C 5,0 C 3,2 C 2,1 C 0,0 C 82 % 87 % 0 % 1012,4 hPa 0,0 l/m 0,0 km/h (0 Bft) N 0,00 h 0,0 UV-I 1,0 C 2,1 C 0,0 km/h (0 Bft)
23.05.2013 05:00 2,1 C 18,7 C 3,9 C 1,8 C 1,1 C 0,0 C 85 % 88 % 0 % 1012,4 hPa 0,0 l/m 0,0 km/h (0 Bft) N 0,00 h 0,0 UV-I -0,1 C 1,1 C 0,0 km/h (0 Bft)
23.05.2013 06:00 1,8 C 18,6 C 4,2 C 2,0 C 2,0 C 0,2 C 87 % 88 % 5 % 1012,4 hPa 0,0 l/m 0,0 km/h (0 Bft) N 0,00 h 0,0 UV-I -0,2 C 2,0 C 0,0 km/h (0 Bft)
23.05.2013 07:00 4,1 C 18,2 C 6,3 C 13,0 C 13,0 C 8,9 C 89 % 87 % 100 % 1012,2 hPa 0,0 l/m 0,8 km/h (0 Bft) W-SW 1,23 h 0,0 UV-I 2,4 C 13,0 C 1,3 km/h (1 Bft)
23.05.2013 08:00 7,2 C 18,0 C 6,9 C 15,7 C 15,7 C 8,5 C 76 % 82 % 100 % 1012,2 hPa 0,0 l/m 3,4 km/h (1 Bft) S 1,00 h 0,2 UV-I 3,2 C 15,7 C 4,6 km/h (1 Bft)
23.05.2013 09:00 8,0 C 18,0 C 7,4 C 14,4 C 14,4 C 6,4 C 69 % 78 % 100 % 1012,1 hPa 0,0 l/m 2,7 km/h (1 Bft) O 1,00 h 0,3 UV-I 2,6 C 14,4 C 4,1 km/h (1 Bft)
23.05.2013 10:00 8,8 C 18,0 C 8,5 C 16,5 C 16,5 C 7,7 C 66 % 76 % 100 % 1011,8 hPa 0,0 l/m 2,3 km/h (1 Bft) S 1,00 h 0,5 UV-I 2,8 C 16,5 C 3,6 km/h (1 Bft)
23.05.2013 11:00 9,9 C 18,0 C 9,8 C 17,2 C 17,2 C 7,3 C 63 % 72 % 100 % 1011,2 hPa 0,0 l/m 2,3 km/h (1 Bft) N-NO 1,00 h 0,6 UV-I 3,2 C 17,2 C 2,9 km/h (1 Bft)
23.05.2013 12:00 11,0 C 18,0 C 10,6 C 15,9 C 15,9 C 5,0 C 60 % 71 % 100 % 1010,6 hPa 0,0 l/m 2,7 km/h (1 Bft) SW 0,77 h 1,2 UV-I 3,6 C 15,9 C 3,0 km/h (1 Bft)
23.05.2013 13:00 12,2 C 18,1 C 12,9 C 17,5 C 17,5 C 5,3 C 55 % 63 % 100 % 1009,8 hPa 0,0 l/m 3,3 km/h (1 Bft) O-NO 1,23 h 1,5 UV-I 3,5 C 17,5 C 4,3 km/h (1 Bft)
23.05.2013 14:00 12,2 C 18,2 C 13,0 C 16,0 C 16,0 C 3,7 C 56 % 62 % 95 % 1009,2 hPa 0,0 l/m 4,0 km/h (1 Bft) O-NO 0,75 h 0,9 UV-I 3,6 C 16,0 C 4,7 km/h (1 Bft)
23.05.2013 15:00 12,9 C 18,4 C 13,3 C 17,5 C 17,5 C 4,6 C 56 % 62 % 100 % 1008,9 hPa 0,0 l/m 2,8 km/h (1 Bft) NO 1,00 h 0,7 UV-I 4,2 C 17,5 C 3,3 km/h (1 Bft)
23.05.2013 16:00 13,7 C 18,5 C 13,4 C 17,6 C 17,6 C 3,9 C 53 % 62 % 88 % 1008,7 hPa 0,0 l/m 1,6 km/h (1 Bft) NO 0,67 h 0,3 UV-I 4,3 C 17,6 C 1,9 km/h (1 Bft)
23.05.2013 17:00 12,9 C 18,7 C 12,9 C 15,6 C 15,6 C 2,7 C 54 % 62 % 69 % 1008,2 hPa 0,0 l/m 4,1 km/h (1 Bft) O-NO 0,33 h 0,1 UV-I 3,9 C 15,6 C 5,1 km/h (1 Bft)
23.05.2013 18:00 12,5 C 18,9 C 12,3 C 13,6 C 13,6 C 1,1 C 56 % 65 % 29 % 1008,2 hPa 0,0 l/m 3,5 km/h (1 Bft) O-NO 0,00 h 0,0 UV-I 4,0 C 13,6 C 4,7 km/h (1 Bft)
23.05.2013 19:00 12,1 C 19,0 C 11,8 C 12,4 C 12,4 C 0,3 C 60 % 69 % 9 % 1008,3 hPa 0,0 l/m 3,0 km/h (1 Bft) O-NO 0,00 h 0,0 UV-I 4,5 C 12,4 C 3,4 km/h (1 Bft)
23.05.2013 20:00 11,6 C 19,1 C 11,4 C 11,7 C 11,7 C 0,1 C 64 % 71 % 3 % 1008,3 hPa 0,0 l/m 3,1 km/h (1 Bft) O-NO 0,00 h 0,0 UV-I 4,9 C 11,7 C 3,6 km/h (1 Bft)
23.05.2013 21:00 10,9 C 19,1 C 10,7 C 10,8 C 10,7 C 0,0 C 68 % 74 % 0 % 1008,5 hPa 0,0 l/m 4,2 km/h (1 Bft) O-NO 0,00 h 0,0 UV-I 5,2 C 10,7 C 4,8 km/h (1 Bft)
23.05.2013 22:00 10,3 C 19,2 C 10,1 C 10,1 C 9,8 C 0,0 C 69 % 76 % 0 % 1008,4 hPa 0,0 l/m 0,6 km/h (0 Bft) O-SO 0,00 h 0,0 UV-I 4,9 C 9,8 C 0,4 km/h (0 Bft)
23.05.2013 23:00 9,1 C 19,2 C 9,1 C 8,7 C 7,9 C 0,0 C 74 % 79 % 0 % 1008,5 hPa 0,0 l/m 0,3 km/h (0 Bft) O-NO 0,00 h 0,0 UV-I 4,7 C 7,9 C 0,3 km/h (0 Bft)
24.05.2013 00:00 8,4 C 19,3 C 8,6 C 8,2 C 7,8 C 0,0 C 78 % 81 % 0 % 1008,9 hPa 0,0 l/m 0,4 km/h (0 Bft) O-SO 0,00 h 0,0 UV-I 4,8 C 7,8 C 0,0 km/h (0 Bft)
24.05.2013 01:00 7,6 C 19,3 C 8,3 C 7,6 C 7,6 C 0,1 C 81 % 83 % 0 % 1009,2 hPa 0,0 l/m 1,0 km/h (0 Bft) W-SW 0,00 h 0,0 UV-I 4,6 C 7,6 C 2,7 km/h (1 Bft)
24.05.2013 02:00 7,2 C 19,2 C 8,1 C 7,2 C 7,1 C 0,1 C 82 % 83 % 0 % 1009,7 hPa 0,0 l/m 3,4 km/h (1 Bft) W-SW 0,00 h 0,0 UV-I 4,3 C 7,0 C 5,4 km/h (1 Bft)
24.05.2013 03:00 6,4 C 19,1 C 7,3 C 6,3 C 6,1 C 0,1 C 82 % 83 % 0 % 1010,1 hPa 0,0 l/m 4,4 km/h (1 Bft) SW 0,00 h 0,0 UV-I 3,5 C 5,6 C 5,4 km/h (1 Bft)
24.05.2013 04:00 6,0 C 19,1 C 7,1 C 6,3 C 6,3 C 0,3 C 82 % 83 % 0 % 1010,5 hPa 0,0 l/m 3,1 km/h (1 Bft) W-SW 0,00 h 0,0 UV-I 3,2 C 6,2 C 4,2 km/h (1 Bft)
24.05.2013 05:00 5,8 C 18,9 C 7,0 C 6,1 C 6,1 C 0,2 C 82 % 83 % 2 % 1011,0 hPa 0,0 l/m 3,7 km/h (1 Bft) SW 0,00 h 0,0 UV-I 3,1 C 6,1 C 5,0 km/h (1 Bft)
24.05.2013 06:00 5,5 C 18,9 C 6,5 C 5,5 C 5,4 C 0,1 C 83 % 83 % 2 % 1011,3 hPa 0,0 l/m 4,2 km/h (1 Bft) S 0,00 h 0,0 UV-I 2,8 C 5,2 C 5,2 km/h (1 Bft)
24.05.2013 07:00 5,3 C 18,8 C 6,6 C 5,7 C 5,7 C 0,4 C 84 % 84 % 11 % 1011,5 hPa 0,0 l/m 4,5 km/h (1 Bft) W 0,00 h 0,0 UV-I 2,9 C 5,3 C 5,1 km/h (1 Bft)
24.05.2013 08:00 5,3 C 18,7 C 6,4 C 5,5 C 5,5 C 0,2 C 84 % 84 % 5 % 1011,9 hPa 0,0 l/m 4,7 km/h (1 Bft) SW 0,00 h 0,0 UV-I 2,8 C 5,2 C 6,3 km/h (2 Bft)
24.05.2013 09:00 5,6 C 18,5 C 6,8 C 7,0 C 7,0 C 1,4 C 84 % 83 % 37 % 1012,4 hPa 0,0 l/m 4,5 km/h (1 Bft) W-SW 0,00 h 0,0 UV-I 3,0 C 6,7 C 5,5 km/h (1 Bft)
24.05.2013 10:00 6,1 C 18,4 C 7,4 C 8,0 C 8,0 C 1,8 C 82 % 83 % 48 % 1012,7 hPa 0,0 l/m 3,8 km/h (1 Bft) W-SW 0,00 h 0,1 UV-I 3,3 C 7,9 C 4,6 km/h (1 Bft)
24.05.2013 11:00 6,5 C 18,4 C 7,6 C 8,4 C 8,4 C 1,9 C 82 % 83 % 50 % 1013,1 hPa 0,0 l/m 3,5 km/h (1 Bft) SW 0,00 h 0,1 UV-I 3,6 C 8,4 C 4,6 km/h (1 Bft)
24.05.2013 12:00 6,5 C 18,2 C 7,6 C 8,1 C 8,1 C 1,5 C 82 % 83 % 40 % 1013,3 hPa 0,0 l/m 3,2 km/h (1 Bft) S 0,00 h 0,2 UV-I 3,7 C 8,1 C 3,7 km/h (1 Bft)
24.05.2013 13:00 7,3 C 18,2 C 8,2 C 9,0 C 9,0 C 1,7 C 80 % 82 % 44 % 1013,4 hPa 0,0 l/m 3,2 km/h (1 Bft) W-SW 0,00 h 0,1 UV-I 4,1 C 8,9 C 4,6 km/h (1 Bft)
24.05.2013 14:00 8,1 C 18,1 C 9,1 C 10,7 C 10,7 C 2,6 C 78 % 80 % 68 % 1013,5 hPa 0,0 l/m 3,7 km/h (1 Bft) W-SW 0,25 h 0,2 UV-I 4,6 C 10,7 C 4,6 km/h (1 Bft)
24.05.2013 15:00 8,5 C 18,1 C 9,2 C 10,3 C 10,3 C 1,8 C 77 % 79 % 47 % 1013,6 hPa 0,0 l/m 3,3 km/h (1 Bft) W-SW 0,00 h 0,1 UV-I 4,8 C 10,2 C 4,5 km/h (1 Bft)
24.05.2013 16:00 9,2 C 18,1 C 9,5 C 10,5 C 10,5 C 1,3 C 75 % 79 % 35 % 1013,7 hPa 0,0 l/m 2,8 km/h (1 Bft) W-SW 0,00 h 0,0 UV-I 5,1 C 10,5 C 2,8 km/h (1 Bft)
24.05.2013 17:00 9,1 C 18,2 C 9,3 C 9,9 C 9,9 C 0,8 C 76 % 80 % 21 % 1013,8 hPa 0,0 l/m 1,4 km/h (1 Bft) W-SW 0,00 h 0,0 UV-I 5,2 C 9,9 C 2,1 km/h (1 Bft)
24.05.2013 18:00 10,1 C 18,2 C 10,2 C 12,0 C 12,0 C 1,9 C 75 % 79 % 50 % 1013,4 hPa 0,0 l/m 2,5 km/h (1 Bft) S-SW 0,00 h 0,0 UV-I 6,0 C 12,0 C 4,1 km/h (1 Bft)
24.05.2013 19:00 10,0 C 18,2 C 10,0 C 10,8 C 10,8 C 0,8 C 76 % 80 % 22 % 1013,5 hPa 0,0 l/m 2,1 km/h (1 Bft) SW 0,00 h 0,0 UV-I 6,0 C 10,8 C 2,8 km/h (1 Bft)
24.05.2013 20:00 9,3 C 18,3 C 9,3 C 9,3 C 9,1 C 0,0 C 78 % 82 % 1 % 1013,6 hPa 0,0 l/m 0,2 km/h (0 Bft) N 0,00 h 0,0 UV-I 5,7 C 9,1 C 0,2 km/h (0 Bft)
24.05.2013 21:00 8,2 C 18,5 C 8,4 C 7,9 C 7,4 C 0,0 C 81 % 84 % 0 % 1013,9 hPa 0,0 l/m 0,0 km/h (0 Bft) N 0,00 h 0,0 UV-I 5,1 C 7,4 C 0,0 km/h (0 Bft)
24.05.2013 22:00 6,9 C 18,5 C 7,8 C 6,8 C 6,6 C 0,0 C 83 % 85 % 0 % 1014,0 hPa 0,0 l/m 0,1 km/h (0 Bft) N 0,00 h 0,0 UV-I 4,2 C 6,6 C 0,0 km/h (0 Bft)
24.05.2013 23:00 6,3 C 18,5 C 7,7 C 6,8 C 6,8 C 0,4 C 85 % 86 % 0 % 1014,0 hPa 0,0 l/m 0,0 km/h (0 Bft) N 0,00 h 0,0 UV-I 4,0 C 6,8 C 0,0 km/h (0 Bft)
25.05.2013 00:00 6,3 C 18,5 C 7,8 C 6,9 C 6,9 C 0,7 C 86 % 86 % 0 % 1014,0 hPa 0,0 l/m 0,1 km/h (0 Bft) N 0,00 h 0,0 UV-I 4,0 C 6,9 C 0,2 km/h (0 Bft)
25.05.2013 01:00 6,3 C 18,7 C 7,7 C 6,9 C 6,9 C 0,5 C 86 % 86 % 0 % 1013,8 hPa 0,0 l/m 0,0 km/h (0 Bft) N 0,00 h 0,0 UV-I 4,2 C 6,9 C 0,0 km/h (0 Bft)
25.05.2013 02:00 6,3 C 18,8 C 7,7 C 6,7 C 6,7 C 0,5 C 87 % 87 % 0 % 1013,5 hPa 0,7 l/m 0,0 km/h (0 Bft) N 0,00 h 0,0 UV-I 4,3 C 6,7 C 0,0 km/h (0 Bft)
25.05.2013 03:00 6,3 C 18,8 C 7,6 C 6,7 C 6,7 C 0,4 C 88 % 88 % 0 % 1013,2 hPa 0,0 l/m 0,1 km/h (0 Bft) N 0,00 h 0,0 UV-I 4,3 C 6,7 C 0,0 km/h (0 Bft)
25.05.2013 04:00 6,0 C 18,7 C 7,5 C 6,5 C 6,5 C 0,5 C 88 % 89 % 0 % 1012,8 hPa 0,0 l/m 0,6 km/h (0 Bft) W 0,00 h 0,0 UV-I 4,2 C 6,5 C 0,9 km/h (0 Bft)
25.05.2013 05:00 5,8 C 18,7 C 7,5 C 6,4 C 6,4 C 0,6 C 88 % 90 % 11 % 1012,7 hPa 0,0 l/m 1,0 km/h (0 Bft) SW 0,33 h 0,0 UV-I 4,1 C 6,4 C 1,8 km/h (1 Bft)
25.05.2013 06:00 6,0 C 18,7 C 7,6 C 6,7 C 6,7 C 0,7 C 89 % 91 % 19 % 1012,6 hPa 0,0 l/m 0,6 km/h (0 Bft) S 0,00 h 0,0 UV-I 4,3 C 6,7 C 1,7 km/h (1 Bft)
25.05.2013 07:00 6,2 C 18,6 C 7,7 C 6,9 C 6,9 C 0,7 C 89 % 91 % 19 % 1012,5 hPa 0,0 l/m 2,0 km/h (1 Bft) W-SW 0,00 h 0,0 UV-I 4,5 C 6,9 C 3,2 km/h (1 Bft)
25.05.2013 08:00 6,6 C 18,5 C 8,1 C 7,9 C 7,9 C 1,3 C 88 % 91 % 34 % 1012,7 hPa 0,0 l/m 3,4 km/h (1 Bft) W-SW 0,00 h 0,0 UV-I 4,8 C 7,9 C 5,2 km/h (1 Bft)
25.05.2013 09:00 7,2 C 18,3 C 8,7 C 9,2 C 9,2 C 2,0 C 87 % 90 % 52 % 1012,3 hPa 0,0 l/m 3,7 km/h (1 Bft) SW 0,00 h 0,0 UV-I 5,2 C 9,2 C 5,3 km/h (1 Bft)
25.05.2013 10:00 8,0 C 18,3 C 9,5 C 10,2 C 10,2 C 2,3 C 86 % 90 % 60 % 1012,4 hPa 0,0 l/m 4,4 km/h (1 Bft) SW 0,17 h 0,3 UV-I 5,7 C 10,2 C 6,8 km/h (2 Bft)
25.05.2013 11:00 10,1 C 18,2 C 11,2 C 14,1 C 14,1 C 4,0 C 82 % 88 % 99 % 1012,1 hPa 0,0 l/m 4,3 km/h (1 Bft) W-SW 1,00 h 0,5 UV-I 7,1 C 14,1 C 5,5 km/h (1 Bft)
25.05.2013 12:00 11,9 C 18,1 C 12,3 C 15,1 C 15,1 C 3,2 C 74 % 83 % 75 % 1012,0 hPa 0,0 l/m 5,6 km/h (1 Bft) SW 0,33 h 0,5 UV-I 7,4 C 15,1 C 8,9 km/h (2 Bft)
25.05.2013 13:00 13,6 C 18,1 C 13,8 C 17,4 C 17,4 C 3,8 C 67 % 77 % 92 % 1011,7 hPa 0,0 l/m 5,4 km/h (1 Bft) SW 0,58 h 1,4 UV-I 7,6 C 17,4 C 6,7 km/h (2 Bft)
25.05.2013 14:00 10,3 C 18,4 C 10,6 C 10,9 C 10,5 C 0,8 C 76 % 80 % 21 % 1011,5 hPa 0,7 l/m 3,8 km/h (1 Bft) W 0,00 h 0,3 UV-I 6,2 C 10,3 C 5,8 km/h (2 Bft)
25.05.2013 15:00 11,3 C 18,4 C 11,9 C 14,6 C 14,6 C 3,3 C 80 % 84 % 84 % 1011,3 hPa 0,0 l/m 3,8 km/h (1 Bft) SW 0,33 h 0,4 UV-I 8,0 C 14,6 C 4,8 km/h (1 Bft)
25.05.2013 16:00 11,9 C 18,4 C 11,9 C 12,9 C 12,6 C 1,1 C 77 % 81 % 29 % 1011,3 hPa 0,0 l/m 5,2 km/h (1 Bft) S-SW 0,00 h 0,2 UV-I 8,0 C 12,5 C 6,1 km/h (2 Bft)
25.05.2013 17:00 10,4 C 18,5 C 10,9 C 11,2 C 11,2 C 0,8 C 80 % 82 % 22 % 1011,3 hPa 0,0 l/m 4,0 km/h (1 Bft) W 0,00 h 0,0 UV-I 7,1 C 11,2 C 4,9 km/h (1 Bft)
25.05.2013 18:00 10,7 C 18,5 C 10,9 C 11,2 C 11,2 C 0,5 C 79 % 82 % 14 % 1010,9 hPa 0,0 l/m 4,1 km/h (1 Bft) SW 0,00 h 0,0 UV-I 7,2 C 11,2 C 4,1 km/h (1 Bft)
25.05.2013 19:00 9,6 C 18,6 C 10,1 C 9,8 C 9,8 C 0,2 C 81 % 83 % 6 % 1011,1 hPa 0,0 l/m 2,5 km/h (1 Bft) S 0,00 h 0,0 UV-I 6,6 C 9,8 C 3,2 km/h (1 Bft)
25.05.2013 20:00 8,4 C 18,7 C 9,2 C 8,6 C 8,6 C 0,3 C 83 % 84 % 6 % 1011,2 hPa 0,0 l/m 2,8 km/h (1 Bft) SW 0,00 h 0,0 UV-I 5,7 C 8,6 C 4,3 km/h (1 Bft)
25.05.2013 21:00 7,2 C 18,9 C 8,5 C 7,5 C 7,4 C 0,2 C 85 % 86 % 0 % 1011,2 hPa 0,7 l/m 3,6 km/h (1 Bft) W-SW 0,00 h 0,0 UV-I 4,9 C 7,4 C 3,9 km/h (1 Bft)
25.05.2013 22:00 6,7 C 19,0 C 8,2 C 7,3 C 7,3 C 0,6 C 87 % 87 % 0 % 1011,2 hPa 0,0 l/m 2,5 km/h (1 Bft) W-SW 0,00 h 0,0 UV-I 4,8 C 7,3 C 3,3 km/h (1 Bft)
25.05.2013 23:00 6,4 C 18,9 C 7,7 C 6,4 C 6,2 C 0,1 C 88 % 87 % 0 % 1010,9 hPa 0,7 l/m 5,3 km/h (1 Bft) W-SW 0,00 h 0,0 UV-I 4,6 C 5,3 C 7,2 km/h (2 Bft)
26.05.2013 00:00 5,7 C 18,8 C 7,1 C 5,5 C 4,7 C 0,0 C 88 % 88 % 0 % 1010,9 hPa 0,0 l/m 7,3 km/h (2 Bft) W-SW 0,00 h 0,0 UV-I 3,9 C 2,9 C 12,8 km/h (3 Bft)
26.05.2013 01:00 5,3 C 18,8 C 6,7 C 5,0 C 4,3 C 0,0 C 88 % 89 % 0 % 1010,3 hPa 0,7 l/m 7,1 km/h (2 Bft) W-SW 0,00 h 0,0 UV-I 3,5 C 2,5 C 10,1 km/h (2 Bft)
26.05.2013 02:00 5,1 C 18,7 C 6,5 C 4,9 C 4,5 C 0,0 C 89 % 90 % 0 % 1009,6 hPa 0,0 l/m 6,0 km/h (2 Bft) S 0,00 h 0,0 UV-I 3,5 C 3,2 C 8,2 km/h (2 Bft)
26.05.2013 03:00 5,1 C 18,7 C 6,4 C 5,0 C 4,8 C 0,0 C 89 % 90 % 0 % 1009,0 hPa 0,7 l/m 5,0 km/h (1 Bft) W-SW 0,00 h 0,0 UV-I 3,4 C 3,9 C 7,1 km/h (2 Bft)
26.05.2013 04:00 4,8 C 18,5 C 6,2 C 4,8 C 4,5 C 0,1 C 89 % 91 % 0 % 1008,4 hPa 1,4 l/m 5,5 km/h (1 Bft) W-SW 0,00 h 0,0 UV-I 3,2 C 3,5 C 8,3 km/h (2 Bft)
26.05.2013 05:00 4,8 C 18,4 C 6,0 C 4,8 C 4,6 C 0,0 C 90 % 91 % 0 % 1008,0 hPa 2,1 l/m 5,1 km/h (1 Bft) S 0,00 h 0,0 UV-I 3,3 C 3,8 C 6,8 km/h (2 Bft)
26.05.2013 06:00 4,8 C 18,4 C 6,0 C 5,2 C 5,2 C 0,3 C 90 % 91 % 9 % 1007,5 hPa 1,4 l/m 4,1 km/h (1 Bft) S-SO 0,00 h 0,0 UV-I 3,3 C 5,0 C 7,2 km/h (2 Bft)
26.05.2013 07:00 5,1 C 18,2 C 6,3 C 5,3 C 5,2 C 0,2 C 90 % 91 % 6 % 1007,2 hPa 2,7 l/m 4,9 km/h (1 Bft) S 0,00 h 0,0 UV-I 3,7 C 4,6 C 5,5 km/h (1 Bft)
26.05.2013 08:00 5,4 C 18,2 C 6,6 C 5,4 C 5,1 C 0,0 C 91 % 91 % 1 % 1006,8 hPa 2,1 l/m 6,6 km/h (2 Bft) SW 0,00 h 0,0 UV-I 4,1 C 3,7 C 9,1 km/h (2 Bft)
26.05.2013 09:00 5,7 C 18,1 C 6,9 C 6,0 C 6,0 C 0,3 C 91 % 91 % 9 % 1006,9 hPa 1,4 l/m 5,1 km/h (1 Bft) SW 0,00 h 0,0 UV-I 4,4 C 5,4 C 5,9 km/h (2 Bft)
26.05.2013 10:00 6,0 C 18,0 C 7,0 C 6,6 C 6,6 C 0,7 C 90 % 91 % 18 % 1006,7 hPa 0,7 l/m 4,2 km/h (1 Bft) NO 0,00 h 0,0 UV-I 4,5 C 6,4 C 7,9 km/h (2 Bft)
26.05.2013 11:00 6,1 C 18,0 C 7,2 C 7,0 C 7,0 C 0,9 C 90 % 91 % 24 % 1006,6 hPa 1,4 l/m 3,5 km/h (1 Bft) SO 0,00 h 0,0 UV-I 4,6 C 7,0 C 3,7 km/h (1 Bft)
26.05.2013 12:00 6,5 C 17,9 C 7,6 C 7,7 C 7,7 C 1,2 C 90 % 91 % 31 % 1006,4 hPa 0,0 l/m 2,4 km/h (1 Bft) O-SO 0,00 h 0,0 UV-I 5,1 C 7,7 C 2,7 km/h (1 Bft)
26.05.2013 13:00 6,8 C 17,9 C 7,9 C 8,0 C 8,0 C 1,2 C 90 % 91 % 32 % 1006,0 hPa 1,4 l/m 3,0 km/h (1 Bft) SO 0,00 h 0,3 UV-I 5,3 C 8,0 C 3,7 km/h (1 Bft)
26.05.2013 14:00 7,1 C 17,9 C 8,2 C 8,5 C 8,5 C 1,3 C 90 % 91 % 34 % 1005,8 hPa 0,7 l/m 2,2 km/h (1 Bft) S 0,00 h 0,1 UV-I 5,6 C 8,5 C 3,8 km/h (1 Bft)
26.05.2013 15:00 7,4 C 17,9 C 8,5 C 8,6 C 8,6 C 1,1 C 91 % 91 % 30 % 1005,4 hPa 1,4 l/m 2,6 km/h (1 Bft) SW 0,00 h 0,0 UV-I 6,1 C 8,6 C 4,0 km/h (1 Bft)
26.05.2013 16:00 7,9 C 17,9 C 8,7 C 8,8 C 8,8 C 1,0 C 91 % 91 % 26 % 1005,2 hPa 0,7 l/m 1,8 km/h (1 Bft) SW 0,00 h 0,0 UV-I 6,5 C 8,8 C 3,1 km/h (1 Bft)
26.05.2013 17:00 8,2 C 18,0 C 9,0 C 9,2 C 9,2 C 1,0 C 91 % 91 % 26 % 1005,1 hPa 0,7 l/m 1,6 km/h (1 Bft) O-SO 0,00 h 0,0 UV-I 6,8 C 9,2 C 2,5 km/h (1 Bft)
26.05.2013 18:00 8,6 C 18,0 C 9,4 C 9,5 C 9,5 C 0,9 C 91 % 91 % 24 % 1004,9 hPa 0,7 l/m 2,3 km/h (1 Bft) S-SW 0,00 h 0,0 UV-I 7,3 C 9,5 C 3,7 km/h (1 Bft)
26.05.2013 19:00 8,8 C 18,1 C 9,6 C 9,6 C 9,6 C 0,8 C 92 % 92 % 21 % 1004,6 hPa 1,4 l/m 2,7 km/h (1 Bft) SW 0,00 h 0,0 UV-I 7,6 C 9,6 C 4,0 km/h (1 Bft)
26.05.2013 20:00 8,8 C 18,2 C 9,6 C 8,9 C 8,8 C 0,1 C 92 % 92 % 2 % 1004,4 hPa 0,7 l/m 6,2 km/h (2 Bft) W-SW 0,00 h 0,0 UV-I 7,6 C 8,1 C 8,4 km/h (2 Bft)
26.05.2013 21:00 8,7 C 18,2 C 9,5 C 8,7 C 8,4 C 0,0 C 92 % 92 % 0 % 1004,2 hPa 0,0 l/m 6,8 km/h (2 Bft) SW 0,00 h 0,0 UV-I 7,5 C 7,5 C 9,0 km/h (2 Bft)
26.05.2013 22:00 8,7 C 18,3 C 9,5 C 9,1 C 9,1 C 0,4 C 92 % 92 % 0 % 1004,3 hPa 1,4 l/m 4,7 km/h (1 Bft) W-SW 0,00 h 0,0 UV-I 7,5 C 8,9 C 5,1 km/h (1 Bft)
26.05.2013 23:00 8,8 C 18,3 C 9,5 C 9,2 C 9,2 C 0,3 C 92 % 92 % 0 % 1004,1 hPa 0,7 l/m 4,9 km/h (1 Bft) W-SW 0,00 h 0,0 UV-I 7,6 C 8,9 C 6,7 km/h (2 Bft)
Min-Datum _ 23.05.13 26.05.13 23.05.13 23.05.13 23.05.13 20.05.13 23.05.13 20.05.13 20.05.13 26.05.13 - 20.05.13 - - 20.05.13 23.05.13 23.05.13 20.05.13
_ Min-Zeit 05:50 12:10 05:45 05:35 05:40 05:25 16:30 19:20 00:00 23:35 - 20:55 - - 00:00 05:50 05:40 00:10
Minimum _ 1,7 C 17,9 C 3,6 C 1,6 C 0,9 C 0,0 C 50 % 57 % 0 % 1003,9 hPa - 0,0 km/h (0 Bft) - - 0,0 UV-I -0,4 C 0,9 C 0,0 km/h (0 Bft)
Max-Datum _ 20.05.13 20.05.13 20.05.13 21.05.13 21.05.13 23.05.13 26.05.13 26.05.13 20.05.13 24.05.13 26.05.13 20.05.13 - 20.05.13 20.05.13 20.05.13 21.05.13 20.05.13
_ Max-Zeit 17:10 00:00 13:35 17:45 17:45 07:30 18:25 17:30 07:00 20:55 07:00 12:41 - 07:00 13:00 16:25 17:45 09:10
Maximum _ 19,1 C 22,6 C 18,3 C 24,2 C 24,2 C 10,3 C 92 % 92 % 100 % 1014,2 hPa 2,7 l/m 10,1 km/h
S-SW (2 Bft)
- 0,32 h 2,2 UV-I 10,3 C 24,2 C 24,9 km/h
S (4 Bft)
Durchschnitt _ 9,6 C 19,3 C 10,2 C 10,8 C 10,7 C 1,4 C 79 % 82 % 28 % 1010,3 hPa #33,0 l/m 2,8 km/h (1 Bft) W-SW #28:36 h 0,5 UV-I 5,8 C 10,6 C 3,8 km/h (1 Bft)
2013 www.wetterstation-wechselburg.de